• Join FlightAware (Why Join?)
  • Login
  • US Flag 
12:38PM EDT


 

Airport Tracker/Info


-or-


 

Live Flight TrackerFlight Track Log ✈ EJA831 ✈ 25-Jul-2013 ✈ KMGN - KEYE

Flight Track Log - Related Links

Times and Time Zones

All times are in EDT time to prevent confusion due to time zone crossing. See the EJA831 flight status page for this flight to view local times or setup timezone preferences in your user account.

Time Position Orientation Groundspeed Altitude Reporting Facility
EDT Latitude Longitude Course Direction KTS MPH feet Rate Location/Type
02:49PM 45.4339 -85.0069 180° South 263 303 4,100  Level Minneapolis Center
02:50PM 45.4256 -85.0997 263° West 262 302 8,400 3,960 Climbing Minneapolis Center
02:51PM 45.3833 -85.1861 235° Southwest 265 305 12,400 3,780 Climbing Minneapolis Center
02:52PM 45.2961 -85.2350 202° Southwest 291 335 16,300 3,180 Climbing Minneapolis Center
02:53PM 45.2053 -85.2444 184° South 313 360 19,000 2,280 Climbing Minneapolis Center
02:54PM 45.1308 -85.2528 185° South 327 376 21,100 2,400 Climbing Minneapolis Center
02:55PM 44.8706 -85.0333 180° South  Level FlightAware Approximate
02:56PM 44.9956 -85.2678 184° South 342 394 24,500  Level Minneapolis Center
02:57PM 44.8931 -85.2775 184° South 358 412 26,500 2,100 Climbing Minneapolis Center
02:58PM 44.7892 -85.2886 184° South 368 423 28,900 2,280 Climbing Minneapolis Center
02:59PM 44.6658 -85.3014 184° South 369 425 31,700 1,320 Climbing Minneapolis Center
03:00PM 44.5311 -85.3156 184° South 405 466 32,000 120 Climbing Minneapolis Center
03:01PM 44.4336 -85.3261 184° South 431 496 32,000  Level Minneapolis Center
03:02PM 44.2850 -85.3425 185° South 445 512 32,000  Level Minneapolis Center
03:03PM 44.1606 -85.3556 184° South 447 514 32,000  Level Minneapolis Center
03:04PM 44.0419 -85.3689 185° South 445 512 32,000  Level Minneapolis Center
03:05PM 43.8950 -85.3947 187° South 444 511 32,000  Level Minneapolis Center
03:06PM 43.7739 -85.4272 191° South 443 510 32,000  Level Minneapolis Center
03:08PM 43.6019 -85.4714 191° South 448 516 32,000  Level Chicago Center
03:09PM 43.4542 -85.5069 190° South 450 518 32,000  Level Chicago Center
03:10PM 43.3319 -85.5364 190° South 446 513 32,000  Level Chicago Center
03:11PM 43.2094 -85.5661 190° South 446 513 32,000  Level Chicago Center
03:12PM 43.0861 -85.5972 190° South 447 514 32,000  Level Chicago Center
03:13PM 42.9619 -85.6264 190° South 446 513 32,000  Level Chicago Center
03:14PM 42.8392 -85.6594 191° South 445 512 32,000  Level Chicago Center
03:15PM 42.7164 -85.6889 190° South 446 513 32,000  Level Chicago Center
03:16PM 42.5933 -85.7200 191° South 447 514 32,000  Level Chicago Center
03:17PM 42.4433 -85.7564 190° South 454 522 32,000  Level Chicago Center
03:18PM 42.3211 -85.7856 190° South 449 517 32,000 -480 Level Chicago Center
03:19PM 42.1978 -85.8142 190° South 448 516 31,100 -1,140 Descending Chicago Center
03:20PM 42.0747 -85.8442 190° South 449 517 29,700 -1,380 Descending Chicago Center
03:21PM 41.9458 -85.8775 191° South 442 509 28,300 -1,260 Descending Chicago Center
03:22PM 41.8269 -85.9047 190° South 440 506 27,100 -1,200 Descending Chicago Center
03:23PM 41.7069 -85.9325 190° South 441 507 25,900 -1,500 Descending Chicago Center
03:24PM 41.5733 -85.9639 190° South 412 474 24,100 -960 Descending Chicago Center
03:25PM 41.4594 -85.9706 183° South 413 475 24,000 -60 Descending Chicago Center
03:26PM 41.3408 -85.9800 183° South 428 493 24,000 -360 Level Chicago Center
03:27PM 41.2231 -85.9889 183° South 427 491 23,300 -600 Descending Chicago Center
03:28PM 41.1078 -85.9986 184° South 419 482 22,800 -1,080 Descending Chicago Center
03:29PM 40.9747 -86.0086 183° South 403 464 21,100 -1,800 Descending Chicago Center
03:30PM 40.8683 -86.0175 184° South 388 447 19,100 -1,860 Descending Chicago Center
03:32PM 40.7622 -86.0258 183° South 385 443 17,300 -1,920 Descending Chicago Center
03:32PM 40.6908 -86.0281 181° South 374 430 15,900 -1,920 Descending Chicago Center
03:33PM 40.5611 -86.0403 184° South 357 411 13,500 -1,800 Descending Chicago Center
03:35PM 40.4597 -86.0483 183° South 344 396 11,500 -1,740 Descending Chicago Center
03:36PM 40.3728 -86.0550 183° South 336 387 10,100 -780 Descending Chicago Center
03:37PM 40.2786 -86.0625 183° South 323 372 10,000 -60 Descending Chicago Center
03:38PM 40.1911 -86.0722 185° South 319 367 10,000 -60 Level Chicago Center
03:39PM 40.1189 -86.1658 225° Southwest 310 357 9,900 -780 Descending Chicago Center
03:40PM 40.0669 -86.2381 227° Southwest 280 322 8,400 -1,920 Descending Chicago Center
03:41PM 40.0192 -86.3069 228° Southwest 264 304 6,000 -2,100 Descending Chicago Center
03:42PM 39.9706 -86.3758 227° Southwest 262 302 4,100 -1,020 Descending Chicago Center
03:43PM 39.9128 -86.4536 226° Southwest 256 295 4,000 -60 Descending Chicago Center
03:44PM 39.8694 -86.5125 226° Southwest 242 278 4,000  Level Chicago Center
03:45PM 39.8247 -86.5408 206° Southwest 226 260 4,000 -540 Level Chicago Center
03:46PM 39.8083 -86.4731 107° East 211 243 3,000 -480 Descending Chicago Center
03:47PM 39.8014 -86.3992 97° East 206 237 3,000 -480 Level Chicago Center
03:48PM 39.8011 -86.3325 90° East 189 217 2,000 -1,020 Descending Chicago Center
03:49PM 39.8247 -86.2986 48° Northeast 137 158 900 -1,080 Descending Chicago Center